Terminal Aerodrome Forecast
Issued by NWS Blacksburg, VA

Home | Current Version | Previous Version | Text Only | Print | Product List | Glossary On
Versions: 1 2 3 4 5 6 7 8 9 10 11 12 13 14 15 16 17 18 19 20 21 22 23 24 25 26 27 28 29 30 31 32 33 34 35 36 37 38 39 40 41 42 43 44
000
FTUS41 KRNK 030857 AAA
TAFROA
TAF AMD
KROA 030857Z 0309/0406 VRB03KT P6SM BKN028
     FM031100 13003KT P6SM OVC022
      TEMPO 0312/0314 -PL
     FM031400 13005KT 5SM -FZRA BR OVC012
     FM031900 14005KT 5SM -RA BR OVC008=

USA.gov is the U.S. government's official web portal to all federal, state and local government web resources and services.